sensor_id;sensor_type;location;lat;lon;timestamp;P1;durP1;ratioP1;P2;durP2;ratioP2
83940;SDS011;73976;68.386;23.636;2023-12-20T00:01:22;0.08;;;0.00;;
83940;SDS011;73976;68.386;23.636;2023-12-20T00:03:50;0.00;;;0.00;;
83940;SDS011;73976;68.386;23.636;2023-12-20T00:06:19;0.00;;;0.00;;
83940;SDS011;73976;68.386;23.636;2023-12-20T00:08:47;0.00;;;0.00;;
83940;SDS011;73976;68.386;23.636;2023-12-20T00:11:15;0.00;;;0.00;;
83940;SDS011;73976;68.386;23.636;2023-12-20T00:13:44;0.10;;;0.10;;
83940;SDS011;73976;68.386;23.636;2023-12-20T00:16:16;0.00;;;0.00;;
83940;SDS011;73976;68.386;23.636;2023-12-20T00:18:44;0.00;;;0.00;;
83940;SDS011;73976;68.386;23.636;2023-12-20T00:21:12;0.10;;;0.00;;
83940;SDS011;73976;68.386;23.636;2023-12-20T00:23:41;0.55;;;0.10;;
83940;SDS011;73976;68.386;23.636;2023-12-20T00:26:09;0.00;;;0.00;;
83940;SDS011;73976;68.386;23.636;2023-12-20T00:28:37;0.63;;;0.10;;
83940;SDS011;73976;68.386;23.636;2023-12-20T00:31:05;0.05;;;0.05;;
83940;SDS011;73976;68.386;23.636;2023-12-20T00:33:34;0.00;;;0.00;;
83940;SDS011;73976;68.386;23.636;2023-12-20T00:36:02;0.00;;;0.00;;
83940;SDS011;73976;68.386;23.636;2023-12-20T00:38:31;2.30;;;0.25;;
83940;SDS011;73976;68.386;23.636;2023-12-20T00:40:59;0.00;;;0.00;;
83940;SDS011;73976;68.386;23.636;2023-12-20T00:43:28;0.00;;;0.00;;
83940;SDS011;73976;68.386;23.636;2023-12-20T00:45:56;0.00;;;0.00;;
83940;SDS011;73976;68.386;23.636;2023-12-20T00:48:24;0.00;;;0.00;;
83940;SDS011;73976;68.386;23.636;2023-12-20T00:50:54;0.00;;;0.00;;
83940;SDS011;73976;68.386;23.636;2023-12-20T00:53:22;0.00;;;0.00;;
83940;SDS011;73976;68.386;23.636;2023-12-20T00:55:50;0.00;;;0.00;;
83940;SDS011;73976;68.386;23.636;2023-12-20T00:58:19;0.00;;;0.00;;
83940;SDS011;73976;68.386;23.636;2023-12-20T01:00:47;0.00;;;0.00;;
83940;SDS011;73976;68.386;23.636;2023-12-20T01:03:15;0.25;;;0.00;;
83940;SDS011;73976;68.386;23.636;2023-12-20T01:05:43;0.00;;;0.00;;
83940;SDS011;73976;68.386;23.636;2023-12-20T01:08:11;0.00;;;0.00;;
83940;SDS011;73976;68.386;23.636;2023-12-20T01:10:40;0.00;;;0.00;;
83940;SDS011;73976;68.386;23.636;2023-12-20T01:13:08;0.00;;;0.00;;
83940;SDS011;73976;68.386;23.636;2023-12-20T01:15:37;0.13;;;0.10;;
83940;SDS011;73976;68.386;23.636;2023-12-20T01:18:05;0.00;;;0.00;;
83940;SDS011;73976;68.386;23.636;2023-12-20T01:20:33;0.05;;;0.05;;
83940;SDS011;73976;68.386;23.636;2023-12-20T01:23:01;0.00;;;0.00;;
83940;SDS011;73976;68.386;23.636;2023-12-20T01:25:30;0.00;;;0.00;;
83940;SDS011;73976;68.386;23.636;2023-12-20T01:27:58;0.08;;;0.08;;
83940;SDS011;73976;68.386;23.636;2023-12-20T01:30:26;0.03;;;0.00;;
83940;SDS011;73976;68.386;23.636;2023-12-20T01:32:55;1.25;;;0.00;;
83940;SDS011;73976;68.386;23.636;2023-12-20T01:35:23;0.00;;;0.00;;
83940;SDS011;73976;68.386;23.636;2023-12-20T01:40:19;0.00;;;0.00;;
83940;SDS011;73976;68.386;23.636;2023-12-20T01:42:47;0.00;;;0.00;;
83940;SDS011;73976;68.386;23.636;2023-12-20T01:45:15;0.00;;;0.00;;
83940;SDS011;73976;68.386;23.636;2023-12-20T01:47:43;0.10;;;0.10;;
83940;SDS011;73976;68.386;23.636;2023-12-20T01:50:12;0.00;;;0.00;;
83940;SDS011;73976;68.386;23.636;2023-12-20T01:52:41;0.00;;;0.00;;
83940;SDS011;73976;68.386;23.636;2023-12-20T01:55:10;0.00;;;0.00;;
83940;SDS011;73976;68.386;23.636;2023-12-20T01:57:42;0.00;;;0.00;;
83940;SDS011;73976;68.386;23.636;2023-12-20T02:00:11;0.00;;;0.00;;
83940;SDS011;73976;68.386;23.636;2023-12-20T02:02:42;0.00;;;0.00;;
83940;SDS011;73976;68.386;23.636;2023-12-20T02:05:12;0.00;;;0.00;;
83940;SDS011;73976;68.386;23.636;2023-12-20T02:07:41;0.00;;;0.00;;
83940;SDS011;73976;68.386;23.636;2023-12-20T02:10:09;0.00;;;0.00;;
83940;SDS011;73976;68.386;23.636;2023-12-20T02:12:38;0.00;;;0.00;;
83940;SDS011;73976;68.386;23.636;2023-12-20T02:15:06;0.00;;;0.00;;
83940;SDS011;73976;68.386;23.636;2023-12-20T02:17:35;0.00;;;0.00;;
83940;SDS011;73976;68.386;23.636;2023-12-20T02:20:04;0.00;;;0.00;;
83940;SDS011;73976;68.386;23.636;2023-12-20T02:22:33;0.00;;;0.00;;
83940;SDS011;73976;68.386;23.636;2023-12-20T02:25:01;0.13;;;0.10;;
83940;SDS011;73976;68.386;23.636;2023-12-20T02:27:30;0.10;;;0.10;;
83940;SDS011;73976;68.386;23.636;2023-12-20T02:29:58;0.88;;;0.43;;
83940;SDS011;73976;68.386;23.636;2023-12-20T02:32:26;0.13;;;0.00;;
83940;SDS011;73976;68.386;23.636;2023-12-20T02:34:55;0.47;;;0.10;;
83940;SDS011;73976;68.386;23.636;2023-12-20T02:37:24;0.25;;;0.10;;
83940;SDS011;73976;68.386;23.636;2023-12-20T02:39:52;0.10;;;0.10;;
83940;SDS011;73976;68.386;23.636;2023-12-20T02:42:20;0.90;;;0.30;;
83940;SDS011;73976;68.386;23.636;2023-12-20T02:44:48;0.30;;;0.20;;
83940;SDS011;73976;68.386;23.636;2023-12-20T02:47:16;0.00;;;0.00;;
83940;SDS011;73976;68.386;23.636;2023-12-20T02:49:45;0.00;;;0.00;;
83940;SDS011;73976;68.386;23.636;2023-12-20T02:52:13;1.17;;;0.20;;
83940;SDS011;73976;68.386;23.636;2023-12-20T02:54:41;0.00;;;0.00;;
83940;SDS011;73976;68.386;23.636;2023-12-20T02:57:09;0.00;;;0.00;;
83940;SDS011;73976;68.386;23.636;2023-12-20T02:59:37;0.00;;;0.00;;
83940;SDS011;73976;68.386;23.636;2023-12-20T03:02:06;0.00;;;0.00;;
83940;SDS011;73976;68.386;23.636;2023-12-20T03:04:34;0.00;;;0.00;;
83940;SDS011;73976;68.386;23.636;2023-12-20T03:07:02;0.40;;;0.05;;
83940;SDS011;73976;68.386;23.636;2023-12-20T03:09:32;0.00;;;0.00;;
83940;SDS011;73976;68.386;23.636;2023-12-20T03:12:21;0.00;;;0.00;;
83940;SDS011;73976;68.386;23.636;2023-12-20T03:14:49;0.10;;;0.00;;
83940;SDS011;73976;68.386;23.636;2023-12-20T03:17:17;1.25;;;0.10;;
83940;SDS011;73976;68.386;23.636;2023-12-20T03:19:46;0.20;;;0.20;;
83940;SDS011;73976;68.386;23.636;2023-12-20T03:22:14;0.38;;;0.10;;
83940;SDS011;73976;68.386;23.636;2023-12-20T03:24:42;0.00;;;0.00;;
83940;SDS011;73976;68.386;23.636;2023-12-20T03:27:11;0.03;;;0.03;;
83940;SDS011;73976;68.386;23.636;2023-12-20T03:29:39;0.10;;;0.10;;
83940;SDS011;73976;68.386;23.636;2023-12-20T03:32:07;0.00;;;0.00;;
83940;SDS011;73976;68.386;23.636;2023-12-20T03:34:36;0.38;;;0.10;;
83940;SDS011;73976;68.386;23.636;2023-12-20T03:37:04;0.00;;;0.00;;
83940;SDS011;73976;68.386;23.636;2023-12-20T03:39:32;0.10;;;0.10;;
83940;SDS011;73976;68.386;23.636;2023-12-20T03:42:00;0.13;;;0.10;;
83940;SDS011;73976;68.386;23.636;2023-12-20T03:44:28;0.22;;;0.20;;
83940;SDS011;73976;68.386;23.636;2023-12-20T03:46:56;0.00;;;0.00;;
83940;SDS011;73976;68.386;23.636;2023-12-20T03:49:24;0.25;;;0.10;;
83940;SDS011;73976;68.386;23.636;2023-12-20T03:51:53;0.00;;;0.00;;
83940;SDS011;73976;68.386;23.636;2023-12-20T03:54:21;0.00;;;0.00;;
83940;SDS011;73976;68.386;23.636;2023-12-20T03:56:49;0.20;;;0.05;;
83940;SDS011;73976;68.386;23.636;2023-12-20T03:59:18;0.25;;;0.08;;
83940;SDS011;73976;68.386;23.636;2023-12-20T04:01:46;0.38;;;0.20;;
83940;SDS011;73976;68.386;23.636;2023-12-20T04:04:14;0.10;;;0.10;;
83940;SDS011;73976;68.386;23.636;2023-12-20T04:06:42;0.20;;;0.20;;
83940;SDS011;73976;68.386;23.636;2023-12-20T04:09:11;0.00;;;0.00;;
83940;SDS011;73976;68.386;23.636;2023-12-20T04:11:39;0.38;;;0.10;;
83940;SDS011;73976;68.386;23.636;2023-12-20T04:14:07;0.00;;;0.00;;
83940;SDS011;73976;68.386;23.636;2023-12-20T04:16:35;0.10;;;0.10;;
83940;SDS011;73976;68.386;23.636;2023-12-20T04:19:04;0.00;;;0.00;;
83940;SDS011;73976;68.386;23.636;2023-12-20T04:21:32;0.30;;;0.30;;
83940;SDS011;73976;68.386;23.636;2023-12-20T04:24:00;0.00;;;0.00;;
83940;SDS011;73976;68.386;23.636;2023-12-20T04:26:28;0.00;;;0.00;;
83940;SDS011;73976;68.386;23.636;2023-12-20T04:28:57;0.00;;;0.00;;
83940;SDS011;73976;68.386;23.636;2023-12-20T04:31:25;0.05;;;0.03;;
83940;SDS011;73976;68.386;23.636;2023-12-20T04:33:53;0.10;;;0.00;;
83940;SDS011;73976;68.386;23.636;2023-12-20T04:36:21;3.72;;;0.28;;
83940;SDS011;73976;68.386;23.636;2023-12-20T04:38:50;0.20;;;0.10;;
83940;SDS011;73976;68.386;23.636;2023-12-20T04:41:18;0.32;;;0.20;;
83940;SDS011;73976;68.386;23.636;2023-12-20T04:43:46;1.45;;;0.03;;
83940;SDS011;73976;68.386;23.636;2023-12-20T04:46:14;0.05;;;0.03;;
83940;SDS011;73976;68.386;23.636;2023-12-20T04:48:43;0.20;;;0.10;;
83940;SDS011;73976;68.386;23.636;2023-12-20T04:51:11;0.05;;;0.05;;
83940;SDS011;73976;68.386;23.636;2023-12-20T04:53:39;0.20;;;0.10;;
83940;SDS011;73976;68.386;23.636;2023-12-20T04:56:07;0.00;;;0.00;;
83940;SDS011;73976;68.386;23.636;2023-12-20T04:58:35;0.10;;;0.10;;
83940;SDS011;73976;68.386;23.636;2023-12-20T05:01:05;0.00;;;0.00;;
83940;SDS011;73976;68.386;23.636;2023-12-20T05:03:34;0.00;;;0.00;;
83940;SDS011;73976;68.386;23.636;2023-12-20T05:06:03;0.10;;;0.10;;
83940;SDS011;73976;68.386;23.636;2023-12-20T05:08:31;0.00;;;0.00;;
83940;SDS011;73976;68.386;23.636;2023-12-20T05:10:59;0.00;;;0.00;;
83940;SDS011;73976;68.386;23.636;2023-12-20T05:13:27;0.03;;;0.00;;
83940;SDS011;73976;68.386;23.636;2023-12-20T05:16:08;0.00;;;0.00;;
83940;SDS011;73976;68.386;23.636;2023-12-20T05:18:37;0.00;;;0.00;;
83940;SDS011;73976;68.386;23.636;2023-12-20T05:21:05;1.15;;;0.20;;
83940;SDS011;73976;68.386;23.636;2023-12-20T05:23:33;0.00;;;0.00;;
83940;SDS011;73976;68.386;23.636;2023-12-20T05:26:01;0.00;;;0.00;;
83940;SDS011;73976;68.386;23.636;2023-12-20T05:28:29;0.38;;;0.20;;
83940;SDS011;73976;68.386;23.636;2023-12-20T05:30:57;0.10;;;0.10;;
83940;SDS011;73976;68.386;23.636;2023-12-20T05:33:26;0.00;;;0.00;;
83940;SDS011;73976;68.386;23.636;2023-12-20T05:35:54;0.08;;;0.08;;
83940;SDS011;73976;68.386;23.636;2023-12-20T05:38:22;0.00;;;0.00;;
83940;SDS011;73976;68.386;23.636;2023-12-20T05:40:51;0.32;;;0.20;;
83940;SDS011;73976;68.386;23.636;2023-12-20T05:43:19;0.40;;;0.32;;
83940;SDS011;73976;68.386;23.636;2023-12-20T05:45:47;0.10;;;0.10;;
83940;SDS011;73976;68.386;23.636;2023-12-20T05:48:16;0.00;;;0.00;;
83940;SDS011;73976;68.386;23.636;2023-12-20T05:50:44;0.20;;;0.10;;
83940;SDS011;73976;68.386;23.636;2023-12-20T05:53:12;0.10;;;0.08;;
83940;SDS011;73976;68.386;23.636;2023-12-20T05:55:40;0.03;;;0.03;;
83940;SDS011;73976;68.386;23.636;2023-12-20T05:58:09;0.00;;;0.00;;
83940;SDS011;73976;68.386;23.636;2023-12-20T06:00:37;0.00;;;0.00;;
83940;SDS011;73976;68.386;23.636;2023-12-20T06:03:05;0.35;;;0.00;;
83940;SDS011;73976;68.386;23.636;2023-12-20T06:05:33;0.00;;;0.00;;
83940;SDS011;73976;68.386;23.636;2023-12-20T06:08:01;1.08;;;0.60;;
83940;SDS011;73976;68.386;23.636;2023-12-20T06:10:30;0.43;;;0.43;;
83940;SDS011;73976;68.386;23.636;2023-12-20T06:12:59;2.05;;;0.20;;
83940;SDS011;73976;68.386;23.636;2023-12-20T06:15:28;1.45;;;0.52;;
83940;SDS011;73976;68.386;23.636;2023-12-20T06:17:56;0.20;;;0.10;;
83940;SDS011;73976;68.386;23.636;2023-12-20T06:20:24;1.02;;;0.13;;
83940;SDS011;73976;68.386;23.636;2023-12-20T06:22:52;0.00;;;0.00;;
83940;SDS011;73976;68.386;23.636;2023-12-20T06:25:21;0.03;;;0.00;;
83940;SDS011;73976;68.386;23.636;2023-12-20T06:27:49;1.75;;;1.00;;
83940;SDS011;73976;68.386;23.636;2023-12-20T06:30:18;0.70;;;0.60;;
83940;SDS011;73976;68.386;23.636;2023-12-20T06:32:46;0.38;;;0.30;;
83940;SDS011;73976;68.386;23.636;2023-12-20T06:35:15;0.15;;;0.15;;
83940;SDS011;73976;68.386;23.636;2023-12-20T06:37:43;0.82;;;0.32;;
83940;SDS011;73976;68.386;23.636;2023-12-20T06:40:12;1.15;;;0.20;;
83940;SDS011;73976;68.386;23.636;2023-12-20T06:42:45;0.50;;;0.30;;
83940;SDS011;73976;68.386;23.636;2023-12-20T06:45:28;0.00;;;0.00;;
83940;SDS011;73976;68.386;23.636;2023-12-20T06:47:56;0.60;;;0.30;;
83940;SDS011;73976;68.386;23.636;2023-12-20T06:50:24;0.80;;;0.40;;
83940;SDS011;73976;68.386;23.636;2023-12-20T06:52:53;0.30;;;0.30;;
83940;SDS011;73976;68.386;23.636;2023-12-20T06:55:21;0.77;;;0.22;;
83940;SDS011;73976;68.386;23.636;2023-12-20T06:57:49;0.00;;;0.00;;
83940;SDS011;73976;68.386;23.636;2023-12-20T07:00:17;0.45;;;0.30;;
83940;SDS011;73976;68.386;23.636;2023-12-20T07:02:47;0.57;;;0.45;;
83940;SDS011;73976;68.386;23.636;2023-12-20T07:05:16;1.45;;;0.40;;
83940;SDS011;73976;68.386;23.636;2023-12-20T07:07:47;0.40;;;0.40;;
83940;SDS011;73976;68.386;23.636;2023-12-20T07:10:17;3.15;;;0.50;;
83940;SDS011;73976;68.386;23.636;2023-12-20T07:12:45;1.65;;;0.50;;
83940;SDS011;73976;68.386;23.636;2023-12-20T07:15:13;0.32;;;0.22;;
83940;SDS011;73976;68.386;23.636;2023-12-20T07:17:41;0.30;;;0.20;;
83940;SDS011;73976;68.386;23.636;2023-12-20T07:20:11;1.42;;;0.40;;
83940;SDS011;73976;68.386;23.636;2023-12-20T07:22:40;0.20;;;0.20;;
83940;SDS011;73976;68.386;23.636;2023-12-20T07:25:08;0.60;;;0.22;;
83940;SDS011;73976;68.386;23.636;2023-12-20T07:27:36;0.20;;;0.10;;
83940;SDS011;73976;68.386;23.636;2023-12-20T07:30:05;0.10;;;0.10;;
83940;SDS011;73976;68.386;23.636;2023-12-20T07:32:33;0.40;;;0.35;;
83940;SDS011;73976;68.386;23.636;2023-12-20T07:35:02;0.15;;;0.15;;
83940;SDS011;73976;68.386;23.636;2023-12-20T07:37:31;0.43;;;0.40;;
83940;SDS011;73976;68.386;23.636;2023-12-20T07:39:59;0.40;;;0.22;;
83940;SDS011;73976;68.386;23.636;2023-12-20T07:42:27;2.03;;;0.82;;
83940;SDS011;73976;68.386;23.636;2023-12-20T07:44:55;0.60;;;0.50;;
83940;SDS011;73976;68.386;23.636;2023-12-20T07:47:24;0.73;;;0.50;;
83940;SDS011;73976;68.386;23.636;2023-12-20T07:49:53;0.98;;;0.73;;
83940;SDS011;73976;68.386;23.636;2023-12-20T07:52:21;1.10;;;0.60;;
83940;SDS011;73976;68.386;23.636;2023-12-20T07:54:51;3.67;;;1.52;;
83940;SDS011;73976;68.386;23.636;2023-12-20T07:57:19;4.75;;;1.42;;
83940;SDS011;73976;68.386;23.636;2023-12-20T07:59:47;1.92;;;1.40;;
83940;SDS011;73976;68.386;23.636;2023-12-20T08:02:16;2.90;;;1.73;;
83940;SDS011;73976;68.386;23.636;2023-12-20T08:04:44;1.70;;;1.23;;
83940;SDS011;73976;68.386;23.636;2023-12-20T08:07:12;0.82;;;0.70;;
83940;SDS011;73976;68.386;23.636;2023-12-20T08:09:41;1.42;;;0.73;;
83940;SDS011;73976;68.386;23.636;2023-12-20T08:12:09;3.30;;;1.40;;
83940;SDS011;73976;68.386;23.636;2023-12-20T08:14:38;3.17;;;1.17;;
83940;SDS011;73976;68.386;23.636;2023-12-20T08:17:07;4.10;;;1.30;;
83940;SDS011;73976;68.386;23.636;2023-12-20T08:19:35;1.58;;;0.90;;
83940;SDS011;73976;68.386;23.636;2023-12-20T08:22:03;0.93;;;0.70;;
83940;SDS011;73976;68.386;23.636;2023-12-20T08:24:31;4.13;;;0.82;;
83940;SDS011;73976;68.386;23.636;2023-12-20T08:27:00;0.32;;;0.32;;
83940;SDS011;73976;68.386;23.636;2023-12-20T08:29:28;1.27;;;0.73;;
83940;SDS011;73976;68.386;23.636;2023-12-20T08:34:24;1.30;;;0.40;;
83940;SDS011;73976;68.386;23.636;2023-12-20T08:36:53;1.58;;;0.38;;
83940;SDS011;73976;68.386;23.636;2023-12-20T08:39:21;2.20;;;0.70;;
83940;SDS011;73976;68.386;23.636;2023-12-20T08:44:17;0.22;;;0.17;;
83940;SDS011;73976;68.386;23.636;2023-12-20T08:46:45;0.20;;;0.20;;
83940;SDS011;73976;68.386;23.636;2023-12-20T08:49:13;0.55;;;0.32;;
83940;SDS011;73976;68.386;23.636;2023-12-20T08:51:42;0.30;;;0.30;;
83940;SDS011;73976;68.386;23.636;2023-12-20T08:54:10;0.25;;;0.20;;
83940;SDS011;73976;68.386;23.636;2023-12-20T08:56:40;0.50;;;0.32;;
83940;SDS011;73976;68.386;23.636;2023-12-20T08:59:09;0.43;;;0.28;;
83940;SDS011;73976;68.386;23.636;2023-12-20T09:01:37;0.20;;;0.20;;
83940;SDS011;73976;68.386;23.636;2023-12-20T09:04:06;0.30;;;0.30;;
83940;SDS011;73976;68.386;23.636;2023-12-20T09:06:34;0.70;;;0.43;;
83940;SDS011;73976;68.386;23.636;2023-12-20T09:09:03;0.30;;;0.30;;
83940;SDS011;73976;68.386;23.636;2023-12-20T09:11:31;0.50;;;0.50;;
83940;SDS011;73976;68.386;23.636;2023-12-20T09:13:59;0.43;;;0.40;;
83940;SDS011;73976;68.386;23.636;2023-12-20T09:16:27;0.50;;;0.43;;
83940;SDS011;73976;68.386;23.636;2023-12-20T09:18:56;0.38;;;0.38;;
83940;SDS011;73976;68.386;23.636;2023-12-20T09:21:24;0.28;;;0.25;;
83940;SDS011;73976;68.386;23.636;2023-12-20T09:23:53;0.38;;;0.30;;
83940;SDS011;73976;68.386;23.636;2023-12-20T09:26:21;0.10;;;0.10;;
83940;SDS011;73976;68.386;23.636;2023-12-20T09:31:17;0.10;;;0.10;;
83940;SDS011;73976;68.386;23.636;2023-12-20T09:36:13;0.10;;;0.10;;
83940;SDS011;73976;68.386;23.636;2023-12-20T09:38:41;0.25;;;0.10;;
83940;SDS011;73976;68.386;23.636;2023-12-20T09:41:11;0.20;;;0.10;;
83940;SDS011;73976;68.386;23.636;2023-12-20T09:43:40;0.10;;;0.10;;
83940;SDS011;73976;68.386;23.636;2023-12-20T09:46:09;0.60;;;0.30;;
83940;SDS011;73976;68.386;23.636;2023-12-20T09:48:41;0.10;;;0.10;;
83940;SDS011;73976;68.386;23.636;2023-12-20T09:51:12;0.00;;;0.00;;
83940;SDS011;73976;68.386;23.636;2023-12-20T09:53:40;0.05;;;0.05;;
83940;SDS011;73976;68.386;23.636;2023-12-20T09:56:09;0.03;;;0.00;;
83940;SDS011;73976;68.386;23.636;2023-12-20T09:58:38;0.10;;;0.10;;
83940;SDS011;73976;68.386;23.636;2023-12-20T10:01:07;0.10;;;0.10;;
83940;SDS011;73976;68.386;23.636;2023-12-20T10:03:35;0.43;;;0.30;;
83940;SDS011;73976;68.386;23.636;2023-12-20T10:06:07;0.30;;;0.25;;
83940;SDS011;73976;68.386;23.636;2023-12-20T10:08:37;0.10;;;0.10;;
83940;SDS011;73976;68.386;23.636;2023-12-20T10:13:33;0.08;;;0.00;;
83940;SDS011;73976;68.386;23.636;2023-12-20T10:16:01;0.10;;;0.10;;
83940;SDS011;73976;68.386;23.636;2023-12-20T10:18:30;0.20;;;0.10;;
83940;SDS011;73976;68.386;23.636;2023-12-20T10:21:06;0.00;;;0.00;;
83940;SDS011;73976;68.386;23.636;2023-12-20T10:23:38;0.20;;;0.20;;
83940;SDS011;73976;68.386;23.636;2023-12-20T10:26:07;0.10;;;0.10;;
83940;SDS011;73976;68.386;23.636;2023-12-20T10:28:35;0.00;;;0.00;;
83940;SDS011;73976;68.386;23.636;2023-12-20T10:31:05;0.28;;;0.22;;
83940;SDS011;73976;68.386;23.636;2023-12-20T10:36:02;2.50;;;0.75;;
83940;SDS011;73976;68.386;23.636;2023-12-20T10:38:30;0.20;;;0.10;;
83940;SDS011;73976;68.386;23.636;2023-12-20T10:40:59;0.00;;;0.00;;
83940;SDS011;73976;68.386;23.636;2023-12-20T10:43:31;0.00;;;0.00;;
83940;SDS011;73976;68.386;23.636;2023-12-20T10:46:02;0.00;;;0.00;;
83940;SDS011;73976;68.386;23.636;2023-12-20T10:48:30;0.15;;;0.15;;
83940;SDS011;73976;68.386;23.636;2023-12-20T10:51:00;0.15;;;0.03;;
83940;SDS011;73976;68.386;23.636;2023-12-20T10:53:29;0.00;;;0.00;;
83940;SDS011;73976;68.386;23.636;2023-12-20T10:55:58;0.05;;;0.05;;
83940;SDS011;73976;68.386;23.636;2023-12-20T10:58:28;0.00;;;0.00;;
83940;SDS011;73976;68.386;23.636;2023-12-20T11:01:00;0.00;;;0.00;;
83940;SDS011;73976;68.386;23.636;2023-12-20T11:03:34;0.00;;;0.00;;
83940;SDS011;73976;68.386;23.636;2023-12-20T11:08:47;0.00;;;0.00;;
83940;SDS011;73976;68.386;23.636;2023-12-20T11:11:23;0.00;;;0.00;;
83940;SDS011;73976;68.386;23.636;2023-12-20T11:14:02;0.20;;;0.20;;
83940;SDS011;73976;68.386;23.636;2023-12-20T11:19:18;0.00;;;0.00;;
83940;SDS011;73976;68.386;23.636;2023-12-20T11:21:46;0.00;;;0.00;;
83940;SDS011;73976;68.386;23.636;2023-12-20T11:24:15;0.00;;;0.00;;
83940;SDS011;73976;68.386;23.636;2023-12-20T11:26:47;0.10;;;0.00;;
83940;SDS011;73976;68.386;23.636;2023-12-20T11:29:29;0.00;;;0.00;;
83940;SDS011;73976;68.386;23.636;2023-12-20T11:31:59;0.35;;;0.20;;
83940;SDS011;73976;68.386;23.636;2023-12-20T11:34:28;0.00;;;0.00;;
83940;SDS011;73976;68.386;23.636;2023-12-20T11:37:02;0.00;;;0.00;;
83940;SDS011;73976;68.386;23.636;2023-12-20T11:39:30;0.00;;;0.00;;
83940;SDS011;73976;68.386;23.636;2023-12-20T11:42:03;0.00;;;0.00;;
83940;SDS011;73976;68.386;23.636;2023-12-20T11:44:34;0.10;;;0.10;;
83940;SDS011;73976;68.386;23.636;2023-12-20T11:47:03;0.40;;;0.40;;
83940;SDS011;73976;68.386;23.636;2023-12-20T11:51:59;0.00;;;0.00;;
83940;SDS011;73976;68.386;23.636;2023-12-20T11:54:29;0.00;;;0.00;;
83940;SDS011;73976;68.386;23.636;2023-12-20T11:56:58;0.52;;;0.52;;
83940;SDS011;73976;68.386;23.636;2023-12-20T11:59:26;0.00;;;0.00;;
83940;SDS011;73976;68.386;23.636;2023-12-20T12:01:54;1.38;;;0.40;;
83940;SDS011;73976;68.386;23.636;2023-12-20T12:04:28;0.17;;;0.17;;
83940;SDS011;73976;68.386;23.636;2023-12-20T12:06:56;0.30;;;0.30;;
83940;SDS011;73976;68.386;23.636;2023-12-20T12:09:24;0.50;;;0.50;;
83940;SDS011;73976;68.386;23.636;2023-12-20T12:11:52;1.27;;;0.88;;
83940;SDS011;73976;68.386;23.636;2023-12-20T12:16:48;0.13;;;0.13;;
83940;SDS011;73976;68.386;23.636;2023-12-20T12:19:24;0.40;;;0.40;;
83940;SDS011;73976;68.386;23.636;2023-12-20T12:22:10;0.35;;;0.35;;
83940;SDS011;73976;68.386;23.636;2023-12-20T12:24:44;0.32;;;0.00;;
83940;SDS011;73976;68.386;23.636;2023-12-20T12:27:13;0.60;;;0.40;;
83940;SDS011;73976;68.386;23.636;2023-12-20T12:29:43;0.15;;;0.15;;
83940;SDS011;73976;68.386;23.636;2023-12-20T12:32:28;0.35;;;0.35;;
83940;SDS011;73976;68.386;23.636;2023-12-20T12:34:56;0.10;;;0.05;;
83940;SDS011;73976;68.386;23.636;2023-12-20T12:37:24;1.23;;;0.50;;
83940;SDS011;73976;68.386;23.636;2023-12-20T12:39:54;0.10;;;0.10;;
83940;SDS011;73976;68.386;23.636;2023-12-20T12:42:22;0.00;;;0.00;;
83940;SDS011;73976;68.386;23.636;2023-12-20T12:44:53;0.85;;;0.10;;
83940;SDS011;73976;68.386;23.636;2023-12-20T12:47:21;0.63;;;0.22;;
83940;SDS011;73976;68.386;23.636;2023-12-20T12:49:49;0.20;;;0.20;;
83940;SDS011;73976;68.386;23.636;2023-12-20T12:52:20;0.63;;;0.52;;
83940;SDS011;73976;68.386;23.636;2023-12-20T12:54:48;2.35;;;0.30;;
83940;SDS011;73976;68.386;23.636;2023-12-20T12:57:16;0.10;;;0.10;;
83940;SDS011;73976;68.386;23.636;2023-12-20T12:59:45;0.32;;;0.32;;
83940;SDS011;73976;68.386;23.636;2023-12-20T13:02:14;0.00;;;0.00;;
83940;SDS011;73976;68.386;23.636;2023-12-20T13:04:42;0.00;;;0.00;;
83940;SDS011;73976;68.386;23.636;2023-12-20T13:07:10;0.38;;;0.35;;
83940;SDS011;73976;68.386;23.636;2023-12-20T13:09:39;5.15;;;0.57;;
83940;SDS011;73976;68.386;23.636;2023-12-20T13:14:35;0.00;;;0.00;;
83940;SDS011;73976;68.386;23.636;2023-12-20T13:17:06;0.30;;;0.30;;
83940;SDS011;73976;68.386;23.636;2023-12-20T13:19:35;1.90;;;0.63;;
83940;SDS011;73976;68.386;23.636;2023-12-20T13:22:03;1.17;;;0.85;;
83940;SDS011;73976;68.386;23.636;2023-12-20T13:24:31;0.85;;;0.38;;
83940;SDS011;73976;68.386;23.636;2023-12-20T13:29:27;0.40;;;0.40;;
83940;SDS011;73976;68.386;23.636;2023-12-20T13:31:55;1.67;;;0.77;;
83940;SDS011;73976;68.386;23.636;2023-12-20T13:34:24;2.75;;;0.70;;
83940;SDS011;73976;68.386;23.636;2023-12-20T13:36:52;0.82;;;0.50;;
83940;SDS011;73976;68.386;23.636;2023-12-20T13:39:21;0.35;;;0.35;;
83940;SDS011;73976;68.386;23.636;2023-12-20T13:44:16;0.15;;;0.13;;
83940;SDS011;73976;68.386;23.636;2023-12-20T13:46:44;0.35;;;0.30;;
83940;SDS011;73976;68.386;23.636;2023-12-20T13:49:14;0.45;;;0.40;;
83940;SDS011;73976;68.386;23.636;2023-12-20T13:51:42;0.90;;;0.70;;
83940;SDS011;73976;68.386;23.636;2023-12-20T13:54:10;2.65;;;0.35;;
83940;SDS011;73976;68.386;23.636;2023-12-20T13:56:38;0.45;;;0.40;;
83940;SDS011;73976;68.386;23.636;2023-12-20T13:59:22;0.00;;;0.00;;
83940;SDS011;73976;68.386;23.636;2023-12-20T14:04:18;1.75;;;0.50;;
83940;SDS011;73976;68.386;23.636;2023-12-20T14:07:07;0.17;;;0.17;;
83940;SDS011;73976;68.386;23.636;2023-12-20T14:09:35;0.30;;;0.15;;
83940;SDS011;73976;68.386;23.636;2023-12-20T14:12:04;0.45;;;0.10;;
83940;SDS011;73976;68.386;23.636;2023-12-20T14:14:32;0.00;;;0.00;;
83940;SDS011;73976;68.386;23.636;2023-12-20T14:17:00;3.13;;;0.60;;
83940;SDS011;73976;68.386;23.636;2023-12-20T14:19:28;0.10;;;0.10;;
83940;SDS011;73976;68.386;23.636;2023-12-20T14:24:28;0.00;;;0.00;;
83940;SDS011;73976;68.386;23.636;2023-12-20T14:26:56;0.00;;;0.00;;
83940;SDS011;73976;68.386;23.636;2023-12-20T14:29:26;0.65;;;0.22;;
83940;SDS011;73976;68.386;23.636;2023-12-20T14:31:54;0.30;;;0.20;;
83940;SDS011;73976;68.386;23.636;2023-12-20T14:34:22;0.05;;;0.05;;
83940;SDS011;73976;68.386;23.636;2023-12-20T14:36:51;0.00;;;0.00;;
83940;SDS011;73976;68.386;23.636;2023-12-20T14:39:20;0.70;;;0.30;;
83940;SDS011;73976;68.386;23.636;2023-12-20T14:44:16;0.00;;;0.00;;
83940;SDS011;73976;68.386;23.636;2023-12-20T14:46:45;1.27;;;0.20;;
83940;SDS011;73976;68.386;23.636;2023-12-20T14:49:13;0.28;;;0.28;;
83940;SDS011;73976;68.386;23.636;2023-12-20T14:51:45;0.00;;;0.00;;
83940;SDS011;73976;68.386;23.636;2023-12-20T14:54:15;0.13;;;0.13;;
83940;SDS011;73976;68.386;23.636;2023-12-20T14:56:43;0.03;;;0.03;;
83940;SDS011;73976;68.386;23.636;2023-12-20T15:01:39;0.00;;;0.00;;
83940;SDS011;73976;68.386;23.636;2023-12-20T15:04:10;0.00;;;0.00;;
83940;SDS011;73976;68.386;23.636;2023-12-20T15:06:39;0.28;;;0.15;;
83940;SDS011;73976;68.386;23.636;2023-12-20T15:09:07;0.00;;;0.00;;
83940;SDS011;73976;68.386;23.636;2023-12-20T15:11:35;0.00;;;0.00;;
83940;SDS011;73976;68.386;23.636;2023-12-20T15:14:03;0.10;;;0.10;;
83940;SDS011;73976;68.386;23.636;2023-12-20T15:16:31;0.00;;;0.00;;
83940;SDS011;73976;68.386;23.636;2023-12-20T15:21:28;0.00;;;0.00;;
83940;SDS011;73976;68.386;23.636;2023-12-20T15:24:01;0.20;;;0.10;;
83940;SDS011;73976;68.386;23.636;2023-12-20T15:26:42;0.00;;;0.00;;
83940;SDS011;73976;68.386;23.636;2023-12-20T15:29:10;0.00;;;0.00;;
83940;SDS011;73976;68.386;23.636;2023-12-20T15:31:43;0.00;;;0.00;;